Time;durP1;ratioP1;P1;durP2;ratioP2;P2;SDS_P1;SDS_P2;PMS_P1;PMS_P2;Temp;Humidity;BMP_temperature;BMP_pressure;BME280_temperature;BME280_humidity;BME280_pressure;Samples;Min_cycle;Max_cycle;Signal;HPM_P1;HPM_P2
2022/03/19 00:01:23;;;;;;;74.23;37.30;;;;;;;6.52;68.22;100610.97;5010417;28;20209;-46
2022/03/19 00:03:50;;;;;;;67.17;36.03;;;;;;;6.39;68.35;100605.50;5010676;28;20195;-49
2022/03/19 00:06:16;;;;;;;71.43;38.87;;;;;;;6.27;70.02;100606.97;5008929;28;20798;-47
2022/03/19 00:08:44;;;;;;;68.27;37.53;;;;;;;6.10;71.22;100600.00;5010513;28;20200;-45
2022/03/19 00:11:10;;;;;;;74.20;40.23;;;;;;;6.00;71.82;100610.81;5010091;28;20217;-47
2022/03/19 00:13:37;;;;;;;73.93;39.33;;;;;;;5.80;72.69;100608.25;5010861;28;20216;-47
2022/03/19 00:16:05;;;;;;;77.67;41.60;;;;;;;5.70;73.27;100600.09;5009681;28;20185;-46
2022/03/19 00:18:33;;;;;;;78.50;42.43;;;;;;;5.85;73.85;100620.09;5005202;28;20185;-50
2022/03/19 00:21:00;;;;;;;73.93;41.03;;;;;;;5.79;74.04;100609.19;5005954;28;20215;-47
2022/03/19 00:23:26;;;;;;;71.53;40.93;;;;;;;5.68;74.35;100620.88;5010390;28;20185;-47
2022/03/19 00:25:53;;;;;;;78.67;42.73;;;;;;;5.76;74.39;100628.31;5009395;28;20194;-48
2022/03/19 00:28:20;;;;;;;74.17;42.00;;;;;;;5.68;74.49;100614.88;5010332;28;20208;-51
2022/03/19 00:30:47;;;;;;;76.87;44.37;;;;;;;5.68;75.03;100602.72;5009209;28;20676;-47
2022/03/19 00:33:14;;;;;;;84.73;44.60;;;;;;;5.89;73.79;100608.66;5008468;28;20217;-48
2022/03/19 00:35:43;;;;;;;79.90;43.60;;;;;;;5.80;74.91;100614.31;5009435;28;20183;-50
2022/03/19 00:38:10;;;;;;;76.03;41.80;;;;;;;5.72;74.95;100601.69;5009892;28;20703;-48
2022/03/19 00:40:37;;;;;;;81.27;43.97;;;;;;;5.61;75.78;100603.94;5009600;28;20668;-50
2022/03/19 00:43:03;;;;;;;75.23;42.23;;;;;;;5.46;75.38;100605.47;5009906;28;20185;-50
2022/03/19 00:45:30;;;;;;;86.17;44.27;;;;;;;5.30;75.52;100602.75;5009044;28;20189;-50
2022/03/19 00:47:58;;;;;;;76.37;43.63;;;;;;;5.15;76.70;100610.25;5009779;28;20193;-48
2022/03/19 00:50:25;;;;;;;75.73;39.80;;;;;;;5.61;72.23;100602.19;5009274;28;20220;-49
2022/03/19 00:52:53;;;;;;;72.77;39.50;;;;;;;5.68;71.12;100587.19;5008458;28;20192;-51
2022/03/19 00:55:20;;;;;;;82.50;43.90;;;;;;;6.00;71.38;100584.00;5009621;28;20262;-47
2022/03/19 00:57:48;;;;;;;83.63;44.03;;;;;;;6.05;70.94;100590.69;5007258;28;20227;-47
2022/03/19 01:00:21;;;;;;;75.13;41.17;;;;;;;6.03;70.86;100587.31;5009329;28;20683;-46
2022/03/19 01:02:48;;;;;;;80.37;43.07;;;;;;;5.97;71.42;100589.31;5008181;28;20693;-47
2022/03/19 01:05:16;;;;;;;72.53;41.27;;;;;;;6.05;69.78;100563.91;5008246;28;20212;-47
2022/03/19 01:07:44;;;;;;;74.60;40.80;;;;;;;6.17;67.32;100584.06;5009425;28;20192;-46
2022/03/19 01:10:14;;;;;;;72.33;42.40;;;;;;;6.19;69.21;100584.81;5008565;28;20788;-48
2022/03/19 01:12:42;;;;;;;79.77;42.27;;;;;;;6.15;70.71;100582.47;5009299;28;20202;-47
2022/03/19 01:15:09;;;;;;;77.83;43.47;;;;;;;6.05;70.52;100567.34;5009166;28;20185;-46
2022/03/19 01:17:37;;;;;;;78.77;41.57;;;;;;;6.03;70.45;100563.13;5008898;28;20189;-50
2022/03/19 01:20:05;;;;;;;80.23;43.23;;;;;;;6.07;69.45;100574.22;4995598;28;20251;-49
2022/03/19 01:22:33;;;;;;;73.73;40.10;;;;;;;6.39;66.86;100585.63;5007978;28;20200;-50
2022/03/19 01:25:04;;;;;;;78.93;41.13;;;;;;;6.36;68.63;100580.56;5008711;28;20185;-51
2022/03/19 01:27:32;;;;;;;78.70;41.37;;;;;;;6.29;69.17;100564.50;5008877;28;20188;-48
2022/03/19 01:29:59;;;;;;;81.30;41.27;;;;;;;6.22;69.33;100573.47;5008685;28;20303;-51
2022/03/19 01:32:26;;;;;;;79.33;43.07;;;;;;;6.14;69.32;100560.88;5005298;28;20200;-50
2022/03/19 01:34:53;;;;;;;73.60;39.87;;;;;;;6.19;68.37;100582.22;5006655;28;20188;-50
2022/03/19 01:37:20;;;;;;;55.33;30.47;;;;;;;6.74;65.62;100577.84;5008295;28;20263;-47
2022/03/19 01:39:47;;;;;;;76.97;39.30;;;;;;;6.63;67.37;100586.13;5008312;28;20197;-48
2022/03/19 01:42:23;;;;;;;75.93;41.83;;;;;;;6.46;67.64;100580.94;5009067;28;20355;-49
2022/03/19 01:44:51;;;;;;;83.17;45.50;;;;;;;6.31;69.65;100577.38;5008812;28;20196;-49
2022/03/19 01:47:18;;;;;;;80.13;45.93;;;;;;;6.29;69.92;100579.19;5008754;28;20604;-50
2022/03/19 01:49:46;;;;;;;80.27;42.00;;;;;;;6.15;69.50;100572.91;5008493;28;20200;-47
2022/03/19 01:52:13;;;;;;;80.97;44.03;;;;;;;6.26;68.88;100572.41;5007776;28;20670;-50
2022/03/19 01:54:43;;;;;;;85.40;44.43;;;;;;;6.14;69.13;100579.03;5008288;28;20199;-51
2022/03/19 01:57:11;;;;;;;73.07;38.70;;;;;;;6.19;70.26;100589.19;5008862;28;20184;-48
2022/03/19 01:59:39;;;;;;;75.07;40.13;;;;;;;6.20;69.68;100573.53;5007055;28;20193;-50
2022/03/19 02:02:08;;;;;;;75.20;40.23;;;;;;;6.24;68.65;100588.94;5008978;28;20191;-50
2022/03/19 02:04:36;;;;;;;83.87;44.63;;;;;;;6.20;69.18;100583.91;5008211;28;20235;-50
2022/03/19 02:07:04;;;;;;;85.47;46.27;;;;;;;6.23;70.39;100566.53;5008983;28;20184;-49
2022/03/19 02:09:31;;;;;;;80.83;43.50;;;;;;;6.42;67.85;100569.91;5010079;28;20215;-48
2022/03/19 02:11:58;;;;;;;81.53;43.60;;;;;;;6.19;69.99;100564.09;5012759;28;20193;-49
2022/03/19 02:14:24;;;;;;;86.03;45.83;;;;;;;5.81;73.16;100579.72;5012152;28;20185;-49
2022/03/19 02:16:52;;;;;;;88.70;46.40;;;;;;;5.51;74.80;100558.63;5012367;28;20552;-47
2022/03/19 02:19:21;;;;;;;86.53;47.17;;;;;;;5.34;75.18;100569.75;5012548;28;20192;-50
2022/03/19 02:21:50;;;;;;;84.87;46.07;;;;;;;5.21;76.24;100574.66;5010917;28;20243;-50
2022/03/19 02:27:05;;;;;;;86.87;46.43;;;;;;;4.88;78.00;100569.13;5012366;28;20256;-50
2022/03/19 02:29:32;;;;;;;86.53;45.10;;;;;;;4.68;79.54;100570.00;5012444;28;20200;-50
2022/03/19 02:32:01;;;;;;;90.20;46.83;;;;;;;4.57;81.70;100569.59;5012023;28;20203;-52
2022/03/19 02:34:28;;;;;;;92.00;47.20;;;;;;;4.43;81.62;100559.81;5010724;28;20672;-49
2022/03/19 02:36:56;;;;;;;95.87;48.77;;;;;;;4.32;82.40;100554.25;5011976;28;20185;-47
2022/03/19 02:39:28;;;;;;;93.43;46.10;;;;;;;4.29;82.36;100556.06;5012245;28;20219;-46
2022/03/19 02:41:56;;;;;;;89.43;45.83;;;;;;;4.31;82.21;100544.81;5011760;28;20197;-50
2022/03/19 02:44:23;;;;;;;92.93;48.63;;;;;;;4.26;82.35;100548.41;5011710;28;20563;-50
2022/03/19 02:46:52;;;;;;;91.23;47.67;;;;;;;4.35;82.14;100523.94;5012072;28;20208;-46
2022/03/19 02:49:20;;;;;;;88.83;46.20;;;;;;;4.29;81.89;100534.53;5011854;28;20246;-46
2022/03/19 02:51:48;;;;;;;86.57;44.93;;;;;;;4.17;81.81;100535.03;5011741;28;20221;-49
2022/03/19 02:54:18;;;;;;;86.97;45.17;;;;;;;4.12;81.82;100532.66;5011598;28;20187;-50
2022/03/19 02:56:47;;;;;;;91.87;47.17;;;;;;;4.14;81.53;100536.03;5011921;28;20224;-49
2022/03/19 02:59:17;;;;;;;82.87;44.90;;;;;;;4.14;80.60;100517.94;5012087;28;20200;-50
2022/03/19 03:01:44;;;;;;;76.63;37.17;;;;;;;4.48;78.92;100521.69;5011712;28;20212;-50
2022/03/19 03:04:11;;;;;;;78.33;42.13;;;;;;;4.93;73.90;100513.75;5011153;28;20759;-47
2022/03/19 03:06:40;;;;;;;76.83;40.87;;;;;;;5.14;72.74;100520.56;5009379;28;20279;-49
2022/03/19 03:09:07;;;;;;;75.33;40.37;;;;;;;5.15;72.57;100519.66;5010992;28;20185;-48
2022/03/19 03:11:34;;;;;;;75.63;41.00;;;;;;;5.15;71.70;100518.81;5002026;28;20209;-49
2022/03/19 03:14:03;;;;;;;79.90;40.73;;;;;;;5.35;70.89;100520.47;5008712;28;20532;-47
2022/03/19 03:16:31;;;;;;;75.27;39.83;;;;;;;5.67;68.56;100517.31;5007363;28;20712;-50
2022/03/19 03:19:01;;;;;;;77.63;40.00;;;;;;;5.69;68.33;100533.63;5010303;28;20268;-50
2022/03/19 03:21:28;;;;;;;78.70;39.13;;;;;;;5.93;67.82;100526.44;5009323;28;20304;-50
2022/03/19 03:23:56;;;;;;;75.00;40.87;;;;;;;5.80;67.91;100535.72;5008425;28;20184;-50
2022/03/19 03:26:24;;;;;;;70.07;38.53;;;;;;;6.29;65.68;100528.19;5010433;28;20272;-46
2022/03/19 03:28:51;;;;;;;76.23;42.33;;;;;;;5.99;67.08;100525.28;5010506;28;20196;-47
2022/03/19 03:31:20;;;;;;;81.47;43.57;;;;;;;5.85;68.59;100521.59;5009963;28;20208;-47
2022/03/19 03:33:47;;;;;;;77.17;42.73;;;;;;;5.73;69.10;100520.44;5010479;28;20652;-50
2022/03/19 03:36:14;;;;;;;84.17;44.70;;;;;;;6.11;66.73;100523.91;5009733;28;20518;-47
2022/03/19 03:38:41;;;;;;;84.73;43.87;;;;;;;6.19;66.58;100524.38;5010179;28;20185;-50
2022/03/19 03:41:09;;;;;;;83.17;44.57;;;;;;;6.18;66.42;100520.09;5009498;28;20827;-50
2022/03/19 03:43:35;;;;;;;84.30;44.40;;;;;;;6.23;66.44;100512.06;5010589;28;20188;-50
2022/03/19 03:46:04;;;;;;;79.37;43.37;;;;;;;6.18;66.48;100520.09;5008827;28;20193;-48
2022/03/19 03:48:35;;;;;;;82.40;43.90;;;;;;;6.04;68.89;100518.16;5010927;28;20195;-47
2022/03/19 03:51:02;;;;;;;84.80;44.10;;;;;;;5.83;68.78;100505.28;5009356;28;20217;-50
2022/03/19 03:53:30;;;;;;;85.90;44.63;;;;;;;5.67;69.69;100512.97;5009828;28;20204;-50
2022/03/19 03:55:58;;;;;;;81.10;42.67;;;;;;;5.60;69.92;100508.97;5009507;28;20645;-49
2022/03/19 03:58:25;;;;;;;83.87;45.60;;;;;;;5.49;70.10;100501.72;5010485;28;20719;-51
2022/03/19 04:00:52;;;;;;;85.67;45.97;;;;;;;5.36;70.63;100510.97;5009788;28;20263;-50
2022/03/19 04:03:19;;;;;;;84.20;45.20;;;;;;;5.39;70.49;100497.88;5006840;28;20184;-46
2022/03/19 04:05:48;;;;;;;88.03;47.47;;;;;;;5.37;71.44;100495.34;5009228;28;20208;-50
2022/03/19 04:08:14;;;;;;;85.13;45.17;;;;;;;5.22;71.49;100486.53;5010093;28;20199;-46
2022/03/19 04:10:41;;;;;;;89.23;46.27;;;;;;;5.29;71.65;100500.06;5009527;28;20671;-46
2022/03/19 04:13:08;;;;;;;82.83;45.43;;;;;;;5.36;71.10;100475.53;5010505;28;20188;-46
2022/03/19 04:15:35;;;;;;;86.90;45.00;;;;;;;5.44;70.12;100477.78;5009577;28;20658;-46
2022/03/19 04:18:03;;;;;;;85.30;44.17;;;;;;;5.57;69.24;100480.63;5009852;28;20192;-47
2022/03/19 04:20:30;;;;;;;85.57;44.37;;;;;;;5.68;68.48;100478.38;5010190;28;20235;-49
2022/03/19 04:22:58;;;;;;;83.87;44.97;;;;;;;5.70;68.34;100497.28;5009183;28;20196;-48
2022/03/19 04:25:26;;;;;;;82.23;45.30;;;;;;;5.85;66.74;100476.72;5006920;28;20192;-48
2022/03/19 04:27:55;;;;;;;82.63;43.83;;;;;;;6.00;65.62;100485.47;5010009;28;20185;-46
2022/03/19 04:30:23;;;;;;;82.30;45.17;;;;;;;5.95;66.16;100475.34;5008940;28;20688;-46
2022/03/19 04:32:52;;;;;;;80.37;43.77;;;;;;;6.03;65.09;100481.03;5004035;28;20196;-50
2022/03/19 04:38:07;;;;;;;79.13;41.70;;;;;;;6.00;65.81;100464.75;5009269;28;20271;-49
2022/03/19 04:40:35;;;;;;;75.07;40.87;;;;;;;6.09;64.73;100468.69;5009954;28;20212;-47
2022/03/19 04:43:02;;;;;;;83.37;43.07;;;;;;;6.02;65.62;100463.81;5008180;28;20230;-47
2022/03/19 04:45:29;;;;;;;78.83;42.73;;;;;;;5.86;65.47;100468.03;5007560;28;20690;-49
2022/03/19 04:47:59;;;;;;;77.27;40.80;;;;;;;5.94;64.14;100465.91;5008463;28;20262;-46
2022/03/19 04:50:26;;;;;;;79.77;40.53;;;;;;;6.01;64.31;100467.31;5008944;28;20213;-47
2022/03/19 04:52:54;;;;;;;72.97;41.73;;;;;;;6.08;63.12;100469.59;5008707;28;20238;-50
2022/03/19 04:55:23;;;;;;;76.77;40.60;;;;;;;5.95;63.68;100470.19;5008484;28;20548;-46
2022/03/19 04:57:50;;;;;;;71.27;39.97;;;;;;;5.80;64.98;100474.38;5009157;28;20196;-48
2022/03/19 05:00:20;;;;;;;74.77;40.30;;;;;;;5.69;65.04;100467.09;5008942;28;20262;-47
2022/03/19 05:02:47;;;;;;;73.13;39.47;;;;;;;5.69;64.62;100476.63;5009816;28;20242;-48
2022/03/19 05:05:14;;;;;;;76.57;39.67;;;;;;;5.54;65.37;100484.22;5008845;28;20288;-46
2022/03/19 05:07:41;;;;;;;73.83;40.13;;;;;;;5.74;63.72;100482.44;5009529;28;20232;-50
2022/03/19 05:12:59;;;;;;;75.73;39.63;;;;;;;5.66;65.96;100475.00;5009668;28;20196;-49
2022/03/19 05:15:27;;;;;;;71.83;39.17;;;;;;;5.44;67.00;100480.38;5008526;28;20228;-48
2022/03/19 05:17:54;;;;;;;69.80;37.13;;;;;;;5.82;62.23;100488.09;5009457;28;20185;-46
2022/03/19 05:20:21;;;;;;;71.33;39.17;;;;;;;5.75;63.79;100479.75;5008295;28;20244;-50
2022/03/19 05:22:47;;;;;;;58.77;29.50;;;;;;;6.27;60.52;100482.47;5007496;28;20205;-46
2022/03/19 05:25:14;;;;;;;65.40;40.85;;;;;;;6.21;60.29;100475.84;5005809;28;20453;-46
2022/03/19 05:27:41;;;;;;;70.47;38.87;;;;;;;6.17;60.43;100480.34;5009151;28;20279;-46
2022/03/19 05:30:10;;;;;;;68.33;38.13;;;;;;;6.11;61.51;100487.59;5008021;28;20212;-46
2022/03/19 05:32:38;;;;;;;66.00;36.93;;;;;;;6.28;59.94;100482.41;5008411;28;20191;-46
2022/03/19 05:35:08;;;;;;;68.93;37.07;;;;;;;6.41;58.64;100473.97;5008283;28;20201;-46
2022/03/19 05:37:35;;;;;;;64.83;37.03;;;;;;;6.17;60.76;100484.69;5008600;28;20664;-49
2022/03/19 05:40:05;;;;;;;71.00;37.57;;;;;;;5.96;61.06;100490.00;5008619;28;20204;-46
2022/03/19 05:42:32;;;;;;;62.80;37.00;;;;;;;5.91;62.02;100479.00;5008776;28;20180;-47
2022/03/19 05:44:59;;;;;;;74.80;38.50;;;;;;;5.76;62.77;100488.38;5007821;28;20189;-47
2022/03/19 05:47:27;;;;;;;66.87;36.57;;;;;;;5.52;63.62;100483.44;5008400;28;20210;-46
2022/03/19 05:49:54;;;;;;;72.57;36.43;;;;;;;5.41;65.98;100483.13;5008251;28;20213;-46
2022/03/19 05:52:21;;;;;;;69.77;39.60;;;;;;;5.34;65.67;100476.53;5008103;28;20222;-51
2022/03/19 05:54:48;;;;;;;74.40;41.70;;;;;;;5.23;66.73;100477.03;5008388;28;20184;-46
2022/03/19 05:57:15;;;;;;;69.23;37.87;;;;;;;5.14;66.13;100470.53;5007912;28;20261;-48
2022/03/19 05:59:44;;;;;;;76.67;51.20;;;;;;;5.03;66.33;100481.38;5008326;28;20196;-49
2022/03/19 06:02:11;;;;;;;72.63;37.03;;;;;;;5.04;67.32;100485.66;5008049;28;20203;-47
2022/03/19 06:04:39;;;;;;;69.20;37.23;;;;;;;4.97;67.56;100468.72;5008022;28;20203;-47
2022/03/19 06:07:06;;;;;;;64.50;36.77;;;;;;;4.97;67.25;100474.72;5008005;28;20196;-47
2022/03/19 06:09:33;;;;;;;72.20;38.50;;;;;;;4.92;67.80;100471.50;5008397;28;20283;-48
2022/03/19 06:12:00;;;;;;;68.43;37.60;;;;;;;4.90;67.70;100478.47;5007051;28;20231;-51
2022/03/19 06:14:27;;;;;;;67.53;37.57;;;;;;;4.83;68.47;100475.34;5005634;28;20627;-50
2022/03/19 06:16:54;;;;;;;64.70;37.23;;;;;;;4.77;69.74;100482.56;5007628;28;20207;-46
2022/03/19 06:19:21;;;;;;;67.93;37.43;;;;;;;4.75;69.15;100474.00;5003275;28;20204;-46
2022/03/19 06:21:49;;;;;;;70.40;37.97;;;;;;;4.81;69.47;100478.88;5007495;28;20682;-46
2022/03/19 06:24:16;;;;;;;63.37;36.10;;;;;;;4.77;69.57;100482.56;5007795;28;20275;-50
2022/03/19 06:26:42;;;;;;;64.00;35.13;;;;;;;4.84;67.86;100463.22;5006666;28;20192;-50
2022/03/19 06:29:09;;;;;;;67.80;35.87;;;;;;;4.85;69.00;100478.72;5007996;28;20691;-48
2022/03/19 06:31:36;;;;;;;67.23;36.70;;;;;;;4.85;68.60;100481.28;5008154;28;20654;-46
2022/03/19 06:34:03;;;;;;;68.70;36.90;;;;;;;4.88;67.91;100473.38;5007484;28;20189;-46
2022/03/19 06:39:16;;;;;;;72.83;38.47;;;;;;;4.98;68.84;100480.75;5008316;28;20206;-49
2022/03/19 06:41:43;;;;;;;67.13;37.17;;;;;;;5.13;66.69;100480.06;5008461;28;20218;-47
2022/03/19 06:44:10;;;;;;;68.20;36.03;;;;;;;5.15;67.50;100487.72;5007397;28;20193;-48
2022/03/19 06:46:37;;;;;;;67.57;35.90;;;;;;;5.03;67.47;100479.63;5007924;28;20271;-50
2022/03/19 06:49:03;;;;;;;75.83;38.80;;;;;;;5.00;67.49;100484.09;5007711;28;20193;-51
2022/03/19 06:51:30;;;;;;;65.13;36.83;;;;;;;5.00;68.60;100481.53;5007096;28;20583;-51
2022/03/19 06:53:57;;;;;;;64.40;35.03;;;;;;;5.07;67.43;100480.34;5007117;28;20195;-47
2022/03/19 06:56:25;;;;;;;64.43;36.37;;;;;;;5.10;66.72;100487.97;5008930;28;20212;-47
2022/03/19 06:58:52;;;;;;;61.23;34.67;;;;;;;5.19;65.95;100484.09;5010616;28;20200;-51
2022/03/19 07:01:18;;;;;;;67.53;36.17;;;;;;;5.30;65.89;100488.81;5011430;28;20196;-49
2022/03/19 07:03:47;;;;;;;59.67;34.33;;;;;;;5.73;63.25;100480.75;5011265;28;20272;-48
2022/03/19 07:06:15;;;;;;;66.47;35.30;;;;;;;5.82;63.77;100488.09;5010657;28;20193;-46
2022/03/19 07:08:42;;;;;;;61.87;34.33;;;;;;;6.04;61.91;100494.81;5011093;28;20200;-48
2022/03/19 07:11:09;;;;;;;63.30;35.40;;;;;;;6.05;61.98;100491.31;5010431;28;20208;-46
2022/03/19 07:13:38;;;;;;;62.10;33.37;;;;;;;6.24;60.86;100482.63;5011299;28;20241;-47
2022/03/19 07:16:06;;;;;;;66.43;34.30;;;;;;;6.10;62.20;100485.91;5010565;28;20239;-49
2022/03/19 07:18:33;;;;;;;61.20;33.77;;;;;;;6.09;62.08;100498.03;5002280;28;20200;-48
2022/03/19 07:21:00;;;;;;;59.43;34.00;;;;;;;6.19;61.35;100472.50;4991079;28;20205;-47
2022/03/19 07:23:27;;;;;;;61.23;34.57;;;;;;;6.23;61.83;100492.19;4991522;28;20190;-48
2022/03/19 07:25:54;;;;;;;60.47;33.63;;;;;;;6.36;60.94;100492.38;4994291;28;20262;-47
2022/03/19 07:28:21;;;;;;;66.70;36.37;;;;;;;6.38;60.86;100485.38;5010127;28;20675;-48
2022/03/19 07:30:49;;;;;;;71.23;40.03;;;;;;;6.33;61.02;100488.22;5010364;28;20227;-47
2022/03/19 07:33:16;;;;;;;61.90;35.57;;;;;;;6.35;61.39;100485.53;5011200;28;20199;-48
2022/03/19 07:35:44;;;;;;;58.17;33.57;;;;;;;6.47;61.19;100484.91;5009994;28;20656;-48
2022/03/19 07:38:11;;;;;;;92.87;53.93;;;;;;;6.71;59.55;100494.09;5010885;28;20193;-50
2022/03/19 07:43:21;;;;;;;58.83;32.70;;;;;;;6.91;58.37;100485.25;4988224;28;20196;-51
2022/03/19 07:45:50;;;;;;;61.60;35.97;;;;;;;7.00;58.71;100483.94;5002214;28;20191;-50
2022/03/19 07:48:17;;;;;;;62.03;35.47;;;;;;;7.05;58.27;100479.34;4991057;28;20182;-47
2022/03/19 07:50:44;;;;;;;75.23;39.43;;;;;;;7.13;58.23;100492.75;4990856;28;20202;-50
2022/03/19 07:53:11;;;;;;;60.97;35.17;;;;;;;7.19;57.81;100491.56;4991409;28;20213;-49
2022/03/19 07:55:38;;;;;;;61.50;37.20;;;;;;;7.27;57.26;100491.16;4991079;28;20194;-50
2022/03/19 07:58:05;;;;;;;60.70;33.90;;;;;;;7.36;57.54;100482.88;4989464;28;20279;-46
2022/03/19 08:00:35;;;;;;;57.07;29.83;;;;;;;7.41;56.40;100486.06;4990839;28;20205;-50
2022/03/19 08:03:03;;;;;;;75.70;44.73;;;;;;;7.51;56.61;100486.38;4990825;28;20193;-51
2022/03/19 08:05:30;;;;;;;58.63;33.37;;;;;;;7.58;57.03;100477.31;4989288;28;20197;-49
2022/03/19 08:07:57;;;;;;;64.50;33.60;;;;;;;7.63;56.60;100483.09;4994925;28;20201;-47
2022/03/19 08:10:25;;;;;;;67.33;34.70;;;;;;;7.72;56.16;100475.72;4999444;28;20217;-51
2022/03/19 08:13:00;;;;;;;55.83;32.63;;;;;;;7.74;56.10;100477.28;5000434;28;20559;-48
2022/03/19 08:15:27;;;;;;;56.00;31.97;;;;;;;7.87;56.22;100479.19;5000918;28;20180;-48
2022/03/19 08:17:54;;;;;;;55.57;32.63;;;;;;;7.87;55.88;100474.84;5000647;28;20283;-47
2022/03/19 08:20:22;;;;;;;57.13;33.57;;;;;;;7.92;55.55;100474.56;5001544;28;20265;-48
2022/03/19 08:22:49;;;;;;;55.60;33.27;;;;;;;7.97;55.81;100477.72;4999031;28;20189;-47
2022/03/19 08:25:16;;;;;;;57.83;32.13;;;;;;;8.07;55.39;100472.81;4999551;28;20681;-50
2022/03/19 08:27:42;;;;;;;49.63;24.13;;;;;;;8.10;53.89;100465.69;4997321;28;20199;-48
2022/03/19 08:30:10;;;;;;;60.90;35.73;;;;;;;8.18;54.42;100467.84;5000202;28;20227;-51
2022/03/19 08:32:37;;;;;;;57.53;32.97;;;;;;;8.24;54.74;100474.47;4999957;28;20342;-50
2022/03/19 08:35:04;;;;;;;56.03;32.10;;;;;;;8.29;55.03;100477.63;4998370;28;20368;-50
2022/03/19 08:37:34;;;;;;;55.73;32.40;;;;;;;8.35;54.28;100474.66;5005578;28;20188;-51
2022/03/19 08:40:21;;;;;;;59.27;32.27;;;;;;;8.35;53.55;100466.00;5009510;28;20210;-48
2022/03/19 08:42:51;;;;;;;59.00;32.50;;;;;;;8.37;54.55;100464.16;5010021;28;20189;-49
2022/03/19 08:45:22;;;;;;;56.37;33.27;;;;;;;8.46;53.18;100468.81;5009264;28;20188;-48
2022/03/19 08:47:50;;;;;;;50.77;29.40;;;;;;;8.47;52.51;100464.47;5010226;28;20269;-48
2022/03/19 08:50:17;;;;;;;58.27;33.07;;;;;;;8.52;53.09;100462.44;5008855;28;20692;-50
2022/03/19 08:52:48;;;;;;;57.40;31.83;;;;;;;8.49;53.38;100462.59;5009931;28;20200;-50
2022/03/19 08:55:15;;;;;;;58.73;32.97;;;;;;;8.56;52.80;100456.97;5008808;28;20830;-50
2022/03/19 08:57:42;;;;;;;55.87;32.30;;;;;;;8.62;53.08;100449.72;5009747;28;20619;-50
2022/03/19 09:00:12;;;;;;;55.00;32.03;;;;;;;8.71;54.00;100449.97;5007680;28;20271;-48
2022/03/19 09:02:39;;;;;;;58.80;36.50;;;;;;;8.72;52.44;100450.81;5006946;28;20431;-53
2022/03/19 09:05:07;;;;;;;58.47;35.10;;;;;;;8.84;51.90;100450.06;5009464;28;20187;-51
2022/03/19 09:07:34;;;;;;;50.33;30.37;;;;;;;8.84;51.56;100444.00;5009272;28;20185;-50
2022/03/19 09:10:02;;;;;;;55.67;33.33;;;;;;;8.92;52.64;100443.56;5007943;28;20230;-52
2022/03/19 09:12:29;;;;;;;53.00;29.80;;;;;;;8.92;51.74;100441.78;5009462;28;20205;-49
2022/03/19 09:14:56;;;;;;;49.47;27.60;;;;;;;8.93;51.51;100438.25;5007410;28;20576;-47
2022/03/19 09:17:23;;;;;;;38.73;20.63;;;;;;;9.06;51.40;100437.47;5009165;28;20189;-49
2022/03/19 09:19:50;;;;;;;56.67;30.27;;;;;;;9.20;50.44;100432.22;5008360;28;20196;-51
2022/03/19 09:22:17;;;;;;;55.43;31.30;;;;;;;9.24;50.42;100425.03;5008975;28;20191;-49
2022/03/19 09:24:44;;;;;;;57.72;34.78;;;;;;;9.27;50.47;100430.91;5008447;28;20475;-50
2022/03/19 09:27:12;;;;;;;60.67;34.17;;;;;;;9.30;50.16;100427.25;5007399;28;20218;-50
2022/03/19 09:29:39;;;;;;;54.37;32.60;;;;;;;9.46;50.26;100427.13;5007619;28;20216;-49
2022/03/19 09:32:07;;;;;;;55.60;29.43;;;;;;;9.47;49.59;100423.59;5007687;28;20235;-51
2022/03/19 09:34:34;;;;;;;51.70;30.00;;;;;;;9.58;49.30;100423.69;5008581;28;20231;-48
2022/03/19 09:37:00;;;;;;;50.37;28.57;;;;;;;9.58;48.71;100412.44;5008775;28;20204;-50
2022/03/19 09:39:27;;;;;;;53.57;30.87;;;;;;;9.71;49.88;100422.91;5009086;28;20181;-51
2022/03/19 09:41:55;;;;;;;49.77;30.57;;;;;;;9.80;46.69;100406.66;5008597;28;20296;-52
2022/03/19 09:44:26;;;;;;;55.83;31.67;;;;;;;9.79;47.56;100417.19;5008889;28;20198;-52
2022/03/19 09:46:53;;;;;;;51.07;27.47;;;;;;;9.97;46.64;100409.91;5007515;28;20226;-49
2022/03/19 09:49:20;;;;;;;52.43;30.80;;;;;;;10.15;46.96;100415.66;5008705;28;20450;-52
2022/03/19 09:51:53;;;;;;;53.13;29.90;;;;;;;10.16;46.63;100404.28;5008302;28;20215;-49
2022/03/19 09:54:20;;;;;;;48.50;27.97;;;;;;;10.19;46.39;100410.13;5008442;28;20178;-48
2022/03/19 09:56:47;;;;;;;52.57;30.80;;;;;;;10.18;46.78;100405.00;5008607;28;20207;-49
2022/03/19 09:59:15;;;;;;;33.93;19.27;;;;;;;10.07;45.80;100399.72;5009037;28;20186;-53
2022/03/19 10:01:43;;;;;;;45.03;28.43;;;;;;;10.01;46.61;100391.34;5008636;28;20219;-52
2022/03/19 10:04:11;;;;;;;55.83;29.77;;;;;;;10.09;46.55;100388.22;5007998;28;20548;-51
2022/03/19 10:09:41;;;;;;;49.87;29.43;;;;;;;10.23;47.19;100389.88;5008575;28;20679;-48
2022/03/19 10:12:12;;;;;;;44.93;20.13;;;;;;;10.07;46.24;100378.84;5007204;28;20569;-49
2022/03/19 10:14:39;;;;;;;49.73;30.30;;;;;;;10.26;44.88;100373.19;5008284;28;20188;-49
2022/03/19 10:17:07;;;;;;;48.80;28.77;;;;;;;10.45;47.72;100375.38;5007268;28;20214;-49
2022/03/19 10:19:49;;;;;;;49.57;28.43;;;;;;;10.45;48.84;100363.16;4992929;28;20226;-55
2022/03/19 10:22:23;;;;;;;51.47;27.70;;;;;;;10.46;44.99;100374.44;4989224;28;20657;-57
2022/03/19 10:24:57;;;;;;;48.60;32.78;;;;;;;10.46;45.51;100369.22;4987682;28;20974;-56
2022/03/19 10:27:24;;;;;;;48.30;29.83;;;;;;;10.55;45.35;100373.78;4989070;28;20195;-57
2022/03/19 10:30:02;;;;;;;45.27;25.60;;;;;;;10.59;45.95;100377.03;5000862;28;20204;-56
2022/03/19 10:32:30;;;;;;;56.57;32.57;;;;;;;10.69;47.24;100370.19;5010251;28;20217;-57
2022/03/19 10:34:57;;;;;;;43.47;26.73;;;;;;;10.76;45.12;100368.81;5012244;28;20658;-57
2022/03/19 10:37:37;;;;;;;46.67;27.03;;;;;;;10.72;45.09;100371.78;5011922;28;20189;-57
2022/03/19 10:40:06;;;;;;;53.40;31.10;;;;;;;10.85;44.52;100362.13;5012011;28;20206;-57
2022/03/19 10:42:40;;;;;;;45.33;26.40;;;;;;;10.94;43.83;100358.00;5011766;28;20276;-63
2022/03/19 10:45:11;;;;;;;58.03;32.13;;;;;;;10.83;42.54;100355.31;5011969;28;20272;-64
2022/03/19 10:47:45;;;;;;;56.40;32.63;;;;;;;11.01;43.24;100355.81;5011743;28;20181;-59
2022/03/19 10:50:18;;;;;;;44.33;24.73;;;;;;;10.91;43.28;100353.00;5011720;28;20684;-56
2022/03/19 10:52:46;;;;;;;42.43;24.83;;;;;;;10.86;43.30;100348.13;5009529;28;20209;-55
2022/03/19 10:55:13;;;;;;;44.70;27.07;;;;;;;10.92;42.82;100349.44;5005537;28;20194;-54
2022/03/19 10:57:41;;;;;;;46.77;25.23;;;;;;;10.83;48.59;100350.09;5012027;28;20190;-53
2022/03/19 11:00:10;;;;;;;42.57;23.67;;;;;;;10.76;41.99;100345.31;5011251;28;20205;-55
2022/03/19 11:02:41;;;;;;;34.17;20.50;;;;;;;10.74;40.64;100338.53;5012020;28;20218;-53
2022/03/19 11:05:11;;;;;;;36.43;21.53;;;;;;;10.86;41.89;100331.59;5011652;28;20194;-52
2022/03/19 11:07:42;;;;;;;42.53;22.87;;;;;;;10.95;41.78;100333.53;5010464;28;20295;-53
2022/03/19 11:10:10;;;;;;;33.57;20.20;;;;;;;10.92;39.66;100325.94;5010144;28;20245;-52
2022/03/19 11:12:40;;;;;;;37.83;18.10;;;;;;;10.79;39.82;100318.16;5011516;28;20209;-48
2022/03/19 11:15:10;;;;;;;28.30;17.10;;;;;;;10.94;40.40;100318.81;5010540;28;20240;-53
2022/03/19 11:17:39;;;;;;;33.90;19.30;;;;;;;10.91;40.69;100319.03;5009698;28;20198;-54
2022/03/19 11:20:09;;;;;;;32.83;19.57;;;;;;;11.05;39.43;100316.25;5002750;28;20210;-53
2022/03/19 11:22:41;;;;;;;39.77;22.60;;;;;;;11.08;40.65;100316.03;5004073;28;20672;-53
2022/03/19 11:25:16;;;;;;;32.53;20.27;;;;;;;11.01;39.74;100306.97;4991396;28;20256;-53
2022/03/19 11:27:45;;;;;;;32.73;19.23;;;;;;;10.83;40.13;100298.72;5004002;28;20202;-54
2022/03/19 11:30:18;;;;;;;42.70;21.13;;;;;;;10.87;40.92;100294.94;5001367;28;20215;-50
2022/03/19 11:33:04;;;;;;;35.63;20.97;;;;;;;11.16;41.98;100297.16;4998890;28;20638;-52
2022/03/19 11:35:31;;;;;;;29.93;17.50;;;;;;;11.03;40.34;100304.25;4999471;28;20187;-52
2022/03/19 11:38:01;;;;;;;33.60;19.90;;;;;;;11.09;41.22;100290.75;5010811;28;20193;-52